Time;durP1;ratioP1;P1;durP2;ratioP2;P2;SDS_P1;SDS_P2;PMS_P1;PMS_P2;Temp;Humidity;BMP_temperature;BMP_pressure;BME280_temperature;BME280_humidity;BME280_pressure;Samples;Min_cycle;Max_cycle;Signal;HPM_P1;HPM_P2
2021/04/19 00:07:57;;;;;;;0.63;0.52;;;11.10;67.40;;;;;;20492891;29;20508;-69
2021/04/19 00:17:58;;;;;;;1.42;0.70;;;11.00;67.40;;;;;;20492627;28;20553;-69
2021/04/19 00:27:58;;;;;;;0.70;0.40;;;11.00;67.40;;;;;;20491281;29;20043;-70
2021/04/19 00:37:59;;;;;;;0.65;0.65;;;11.00;67.30;;;;;;20475105;29;20294;-69
2021/04/19 00:47:59;;;;;;;1.20;0.90;;;11.00;67.90;;;;;;20490028;29;20059;-69
2021/04/19 00:58:00;;;;;;;0.93;0.50;;;11.00;67.20;;;;;;20457916;29;20501;-70
2021/04/19 01:08:01;;;;;;;2.30;0.98;;;11.00;67.20;;;;;;20488824;28;20055;-70
2021/04/19 01:18:03;;;;;;;1.13;0.35;;;11.00;67.20;;;;;;20489881;29;20043;-69
2021/04/19 01:28:03;;;;;;;1.05;0.52;;;11.10;67.20;;;;;;20486970;28;20038;-69
2021/04/19 01:38:05;;;;;;;0.57;0.45;;;11.00;67.10;;;;;;20485509;28;20542;-71
2021/04/19 01:48:06;;;;;;;1.40;0.60;;;11.00;67.10;;;;;;20455266;29;20034;-69
2021/04/19 01:58:09;;;;;;;0.90;0.60;;;11.00;67.10;;;;;;20470200;29;20031;-71
2021/04/19 02:08:22;;;;;;;5.35;0.45;;;11.00;67.10;;;;;;20469819;29;20097;-69
2021/04/19 02:18:36;;;;;;;0.82;0.60;;;11.00;67.20;;;;;;20453666;29;20825;-69
2021/04/19 02:28:41;;;;;;;0.95;0.52;;;11.00;67.20;;;;;;20469145;29;20508;-70
2021/04/19 02:38:52;;;;;;;1.10;0.55;;;11.00;67.20;;;;;;20485410;28;20047;-70
2021/04/19 02:48:53;;;;;;;0.28;0.22;;;11.00;67.20;;;;;;20466360;29;20056;-69
2021/04/19 02:58:59;;;;;;;1.40;0.85;;;11.00;67.30;;;;;;20481208;29;20099;-70
2021/04/19 03:09:07;;;;;;;0.20;0.20;;;11.00;67.20;;;;;;20480791;29;20036;-70
2021/04/19 03:19:09;;;;;;;0.52;0.32;;;11.00;67.20;;;;;;20495283;29;20406;-70
2021/04/19 03:29:11;;;;;;;0.57;0.32;;;11.00;67.10;;;;;;20462846;29;20105;-69
2021/04/19 03:39:25;;;;;;;0.47;0.32;;;11.00;67.10;;;;;;20479070;28;20062;-70
2021/04/19 03:49:39;;;;;;;0.70;0.50;;;11.00;67.10;;;;;;20475978;29;20035;-70
2021/04/19 03:59:45;;;;;;;0.77;0.68;;;11.00;67.10;;;;;;20492483;29;20105;-72
2021/04/19 04:09:52;;;;;;;1.50;1.00;;;11.00;67.10;;;;;;20477170;29;20456;-72
2021/04/19 04:19:54;;;;;;;0.63;0.30;;;11.00;67.10;;;;;;20477235;29;20062;-69
2021/04/19 04:29:55;;;;;;;3.58;0.57;;;11.00;67.10;;;;;;20491322;29;20043;-70
2021/04/19 04:40:16;;;;;;;2.17;1.10;;;11.00;67.10;;;;;;20490839;28;20048;-70
2021/04/19 04:50:24;;;;;;;0.82;0.40;;;11.00;67.20;;;;;;20474178;29;20040;-69
2021/04/19 05:00:24;;;;;;;1.30;0.70;;;11.00;67.20;;;;;;20473378;29;20048;-71
2021/04/19 05:10:25;;;;;;;0.70;0.55;;;11.00;67.20;;;;;;20453443;28;20044;-71
2021/04/19 05:20:25;;;;;;;0.93;0.60;;;11.00;67.30;;;;;;20481287;28;20066;-70
2021/04/19 05:30:27;;;;;;;1.13;0.60;;;10.90;67.20;;;;;;20454904;29;20645;-70
2021/04/19 05:40:29;;;;;;;0.40;0.40;;;11.00;67.30;;;;;;20505665;28;20075;-71
2021/04/19 05:50:30;;;;;;;0.85;0.65;;;11.00;67.30;;;;;;20489686;28;20036;-73
2021/04/19 06:00:34;;;;;;;1.20;0.70;;;10.90;67.20;;;;;;20453716;28;20126;-72
2021/04/19 06:11:03;;;;;;;0.85;0.57;;;11.00;67.20;;;;;;20507925;28;20033;-71
2021/04/19 06:21:23;;;;;;;0.90;0.60;;;11.00;67.20;;;;;;20499709;28;20039;-70
2021/04/19 06:31:25;;;;;;;0.55;0.52;;;10.90;67.10;;;;;;20781290;28;20399;-71
2021/04/19 06:41:25;;;;;;;1.35;0.68;;;11.00;67.20;;;;;;20737904;28;20040;-70
2021/04/19 06:51:26;;;;;;;2.80;0.53;;;10.90;67.20;;;;;;20764116;28;20031;-71
2021/04/19 07:01:28;;;;;;;0.50;0.50;;;11.00;67.30;;;;;;20470431;28;20276;-70
2021/04/19 07:11:30;;;;;;;0.65;0.60;;;11.00;67.30;;;;;;20548794;28;20048;-70
2021/04/19 07:21:32;;;;;;;3.30;0.98;;;10.90;67.20;;;;;;20476294;28;20043;-71
2021/04/19 07:31:49;;;;;;;1.45;0.85;;;10.90;67.20;;;;;;20555143;28;20045;-71
2021/04/19 07:41:50;;;;;;;0.47;0.35;;;11.00;67.30;;;;;;20508063;28;20039;-70
2021/04/19 07:51:51;;;;;;;3.15;0.68;;;11.00;67.30;;;;;;20490815;28;20047;-72
2021/04/19 08:01:56;;;;;;;0.50;0.40;;;10.90;67.20;;;;;;20706896;28;20743;-74
2021/04/19 08:11:59;;;;;;;0.98;0.70;;;11.00;67.30;;;;;;20503679;28;20409;-71
2021/04/19 08:22:12;;;;;;;0.95;0.57;;;11.00;67.40;;;;;;20471233;28;20063;-71
2021/04/19 08:32:20;;;;;;;1.25;0.88;;;11.00;67.40;;;;;;20489003;28;20035;-72
2021/04/19 08:42:21;;;;;;;3.95;0.93;;;10.90;67.30;;;;;;20915025;22;20424;-71
2021/04/19 08:52:22;;;;;;;1.77;1.05;;;11.00;67.40;;;;;;20471604;28;20130;-70
2021/04/19 09:02:22;;;;;;;1.35;0.70;;;10.90;67.30;;;;;;20686433;28;20084;-69
2021/04/19 09:12:25;;;;;;;0.82;0.43;;;10.90;67.30;;;;;;20560154;28;20043;-70
2021/04/19 09:22:26;;;;;;;0.38;0.35;;;11.00;67.40;;;;;;20516344;28;20039;-69
2021/04/19 09:32:27;;;;;;;1.75;0.75;;;11.00;67.40;;;;;;20723442;28;20128;-69
2021/04/19 09:42:53;;;;;;;1.23;0.95;;;11.00;67.30;;;;;;20538657;28;20051;-69
2021/04/19 09:52:54;;;;;;;0.90;0.70;;;11.10;67.20;;;;;;20741993;28;20044;-70
2021/04/19 10:02:54;;;;;;;0.63;0.52;;;11.10;67.20;;;;;;20502586;28;20039;-72
2021/04/19 10:12:55;;;;;;;1.23;0.73;;;11.10;67.10;;;;;;20483624;28;20303;-70
2021/04/19 10:23:23;;;;;;;1.33;0.70;;;11.10;67.10;;;;;;20480228;28;20355;-74
2021/04/19 10:33:27;;;;;;;0.80;0.63;;;11.10;67.00;;;;;;20713551;28;20404;-77
2021/04/19 10:43:27;;;;;;;1.35;0.88;;;11.10;67.00;;;;;;20628147;28;20044;-80
2021/04/19 10:53:38;;;;;;;4.03;1.03;;;11.10;67.00;;;;;;20637354;28;20512;-71
2021/04/19 11:03:39;;;;;;;0.85;0.50;;;11.20;67.00;;;;;;20438136;28;20369;-74
2021/04/19 11:13:40;;;;;;;0.55;0.47;;;11.20;66.90;;;;;;20589702;28;20567;-74
2021/04/19 11:23:40;;;;;;;1.05;0.52;;;11.20;66.80;;;;;;20503346;28;20021;-74
2021/04/19 11:33:41;;;;;;;1.38;0.75;;;11.20;66.70;;;;;;20557224;28;20039;-76
2021/04/19 11:43:49;;;;;;;0.47;0.47;;;11.30;66.80;;;;;;20501351;28;20051;-75
2021/04/19 11:53:50;;;;;;;2.05;0.60;;;11.30;66.70;;;;;;20475179;28;20047;-77
2021/04/19 12:03:51;;;;;;;0.73;0.50;;;11.30;66.60;;;;;;20693217;28;20054;-74
2021/04/19 12:13:58;;;;;;;0.70;0.55;;;11.30;66.60;;;;;;20586300;28;20465;-74
2021/04/19 12:23:59;;;;;;;0.60;0.57;;;11.30;66.50;;;;;;20489035;28;20078;-75
2021/04/19 12:34:00;;;;;;;0.82;0.55;;;11.30;66.50;;;;;;20700582;28;20653;-76
2021/04/19 12:44:00;;;;;;;1.08;0.73;;;11.30;66.50;;;;;;20890537;28;20327;-74
2021/04/19 12:54:01;;;;;;;1.80;0.80;;;11.30;66.40;;;;;;20668457;28;20043;-77
2021/04/19 13:04:03;;;;;;;1.50;0.77;;;11.40;66.50;;;;;;20879784;28;20037;-77
2021/04/19 13:14:04;;;;;;;0.40;0.40;;;11.40;66.40;;;;;;20711524;28;20608;-77
2021/04/19 13:24:06;;;;;;;1.48;0.77;;;11.40;66.40;;;;;;20471460;28;20034;-77
2021/04/19 13:34:08;;;;;;;1.08;0.65;;;11.40;66.30;;;;;;20862649;28;20033;-76
2021/04/19 13:44:09;;;;;;;1.15;0.70;;;11.60;66.30;;;;;;20870435;28;20092;-75
2021/04/19 13:54:12;;;;;;;1.20;0.75;;;11.50;66.20;;;;;;20903690;28;20541;-75
2021/04/19 14:04:18;;;;;;;1.73;0.93;;;11.50;66.30;;;;;;20904416;28;20033;-76
2021/04/19 14:14:19;;;;;;;1.07;0.70;;;11.60;66.50;;;;;;20903614;28;20499;-79
2021/04/19 14:24:21;;;;;;;1.13;0.77;;;11.60;66.50;;;;;;20902733;28;20120;-77
2021/04/19 14:34:22;;;;;;;5.85;1.00;;;11.80;66.90;;;;;;20918764;28;20037;-76
2021/04/19 15:31:03;;;;;;;6.43;2.97;;;14.00;63.40;;;;;;21146372;27;20335;-76
2021/04/19 15:41:07;;;;;;;7.90;3.90;;;13.00;66.20;;;;;;21128045;28;20062;-80
2021/04/19 15:51:08;;;;;;;7.68;3.63;;;12.60;67.20;;;;;;21111095;28;20032;-83
2021/04/19 16:01:10;;;;;;;5.38;2.97;;;12.70;67.50;;;;;;21085642;28;20493;-80
2021/04/19 16:11:11;;;;;;;6.18;3.30;;;12.50;67.40;;;;;;21061628;28;20153;-80
2021/04/19 16:21:15;;;;;;;4.88;3.08;;;12.60;67.20;;;;;;21043170;28;20028;-80
2021/04/19 16:31:18;;;;;;;4.95;2.47;;;12.60;66.80;;;;;;21038873;28;20040;-82
2021/04/19 16:41:20;;;;;;;5.78;3.08;;;12.60;66.50;;;;;;21009328;28;20060;-81
2021/04/19 16:51:27;;;;;;;5.25;3.05;;;12.60;66.30;;;;;;20990849;28;20047;-78
2021/04/19 17:01:30;;;;;;;4.00;2.57;;;12.60;66.20;;;;;;21006829;28;20048;-82
2021/04/19 17:11:31;;;;;;;3.78;2.45;;;12.60;66.30;;;;;;20990817;28;20039;-81
2021/04/19 17:21:32;;;;;;;4.50;2.45;;;12.60;66.30;;;;;;20968954;28;20115;-77
2021/04/19 17:31:33;;;;;;;4.47;3.00;;;12.60;66.30;;;;;;20965968;28;20045;-78
2021/04/19 17:41:38;;;;;;;6.10;2.70;;;12.60;66.70;;;;;;20950106;28;20032;-79
2021/04/19 17:51:39;;;;;;;6.88;3.28;;;12.50;66.80;;;;;;20973199;28;20329;-75
2021/04/19 18:01:43;;;;;;;5.35;3.03;;;12.50;66.90;;;;;;20990875;28;20041;-76
2021/04/19 18:11:45;;;;;;;5.68;3.95;;;12.40;66.90;;;;;;20974682;28;20075;-74
2021/04/19 18:21:45;;;;;;;7.57;3.40;;;12.40;66.90;;;;;;20990720;28;20044;-75
2021/04/19 18:31:51;;;;;;;5.35;3.33;;;12.30;66.90;;;;;;20956670;28;20035;-77
2021/04/19 18:41:52;;;;;;;4.07;2.97;;;12.40;66.90;;;;;;20972211;28;20161;-76
2021/04/19 18:51:54;;;;;;;4.13;2.85;;;12.30;67.00;;;;;;20954575;28;20447;-76
2021/04/19 19:01:57;;;;;;;4.10;2.88;;;12.20;66.90;;;;;;20924122;28;20025;-77
2021/04/19 19:11:58;;;;;;;4.15;2.78;;;12.20;67.00;;;;;;20957368;28;20029;-77
2021/04/19 19:22:01;;;;;;;4.03;2.80;;;12.20;67.00;;;;;;20939746;28;20037;-76
2021/04/19 19:32:03;;;;;;;5.88;3.53;;;12.10;67.00;;;;;;20926208;28;20041;-77
2021/04/19 19:42:05;;;;;;;4.30;2.80;;;12.10;67.10;;;;;;20910439;28;20029;-76
2021/04/19 19:52:05;;;;;;;3.97;2.65;;;12.10;67.10;;;;;;20923334;28;20064;-76
2021/04/19 20:02:08;;;;;;;4.28;2.92;;;12.10;67.10;;;;;;20959963;28;20418;-78
2021/04/19 20:12:09;;;;;;;4.88;3.47;;;12.10;67.20;;;;;;20953412;28;20101;-75
2021/04/19 20:22:10;;;;;;;6.32;3.33;;;12.10;67.20;;;;;;21014350;28;20115;-76
2021/04/19 20:32:11;;;;;;;4.88;3.38;;;12.00;67.20;;;;;;20997052;28;20047;-77
2021/04/19 20:42:12;;;;;;;4.57;2.92;;;12.00;67.20;;;;;;20954646;28;20463;-76
2021/04/19 20:52:13;;;;;;;5.70;3.10;;;12.00;67.30;;;;;;20945914;28;20467;-76
2021/04/19 21:02:14;;;;;;;4.53;3.20;;;12.00;67.30;;;;;;20977982;28;20283;-76
2021/04/19 21:12:15;;;;;;;5.00;3.10;;;12.00;67.30;;;;;;20993803;28;20051;-77
2021/04/19 21:22:16;;;;;;;6.82;3.65;;;12.00;67.30;;;;;;21006018;28;20399;-76
2021/04/19 21:32:17;;;;;;;5.85;3.63;;;12.00;67.30;;;;;;20975170;28;20029;-75
2021/04/19 21:42:17;;;;;;;5.93;3.33;;;12.00;67.30;;;;;;20983536;28;20028;-75
2021/04/19 21:52:18;;;;;;;5.03;3.30;;;12.00;67.30;;;;;;20990957;28;20032;-76
2021/04/19 22:02:23;;;;;;;4.97;2.85;;;12.00;67.20;;;;;;20981562;28;20611;-76
2021/04/19 22:12:23;;;;;;;4.13;2.90;;;11.90;67.10;;;;;;20989158;28;20045;-76
2021/04/19 22:22:24;;;;;;;4.80;3.20;;;11.90;67.10;;;;;;20937025;28;20028;-75
2021/04/19 22:32:24;;;;;;;7.75;3.55;;;11.90;67.10;;;;;;20988311;28;20055;-75
2021/04/19 22:42:25;;;;;;;21.77;3.37;;;11.90;67.10;;;;;;20972315;28;20059;-78
2021/04/19 22:52:26;;;;;;;5.40;3.25;;;11.90;67.70;;;;;;20971880;28;20390;-75
2021/04/19 23:02:27;;;;;;;5.00;2.85;;;11.90;66.90;;;;;;20988608;28;20383;-75
2021/04/19 23:12:27;;;;;;;4.72;3.38;;;11.90;66.90;;;;;;20987091;28;20097;-76
2021/04/19 23:22:28;;;;;;;4.53;3.00;;;11.90;66.80;;;;;;20986903;28;20111;-75
2021/04/19 23:32:28;;;;;;;3.80;2.67;;;11.80;66.70;;;;;;20986341;28;20048;-75
2021/04/19 23:42:30;;;;;;;3.45;2.63;;;11.90;66.70;;;;;;20986400;28;20024;-75
2021/04/19 23:52:32;;;;;;;4.30;2.80;;;11.90;66.60;;;;;;20984713;28;20139;-76
